Time;durP1;ratioP1;P1;durP2;ratioP2;P2;SDS_P1;SDS_P2;PMS_P1;PMS_P2;Temp;Humidity;BMP_temperature;BMP_pressure;BME280_temperature;BME280_humidity;BME280_pressure;Samples;Min_cycle;Max_cycle;Signal;HPM_P1;HPM_P2
2024/01/07 00:01:59;;;;;;;3.40;1.90;;;;;;;;;;6203184;28;20050;-80
2024/01/07 00:05:01;;;;;;;3.53;1.63;;;;;;;;;;6216592;28;20050;-80
2024/01/07 00:08:04;;;;;;;4.07;1.80;;;;;;;;;;6208862;28;20419;-79
2024/01/07 00:11:05;;;;;;;3.65;1.90;;;;;;;;;;6210215;28;20049;-79
2024/01/07 00:14:07;;;;;;;3.10;1.90;;;;;;;;;;6229644;28;20172;-80
2024/01/07 00:17:10;;;;;;;3.08;1.80;;;;;;;;;;6223034;28;20511;-81
2024/01/07 00:20:11;;;;;;;3.60;1.95;;;;;;;;;;6201327;28;20092;-80
2024/01/07 00:23:14;;;;;;;3.78;2.35;;;;;;;;;;6228510;28;20049;-80
2024/01/07 00:26:16;;;;;;;4.72;2.70;;;;;;;;;;6206086;28;20052;-79
2024/01/07 00:29:18;;;;;;;4.25;2.67;;;;;;;;;;6227755;28;20057;-80
2024/01/07 00:32:20;;;;;;;3.33;2.38;;;;;;;;;;6226898;28;20038;-79
2024/01/07 00:35:21;;;;;;;5.10;2.47;;;;;;;;;;6222152;28;20046;-80
2024/01/07 00:38:23;;;;;;;4.38;2.53;;;;;;;;;;6206279;28;20042;-79
2024/01/07 00:41:25;;;;;;;4.25;2.47;;;;;;;;;;6204501;28;20103;-80
2024/01/07 00:44:26;;;;;;;4.72;2.38;;;;;;;;;;6196266;28;20052;-80
2024/01/07 00:47:28;;;;;;;4.53;2.70;;;;;;;;;;6207444;28;20502;-80
2024/01/07 00:50:30;;;;;;;3.83;2.10;;;;;;;;;;6194962;28;20125;-81
2024/01/07 00:53:31;;;;;;;5.68;2.55;;;;;;;;;;6225779;28;20045;-79
2024/01/07 00:56:33;;;;;;;5.38;2.78;;;;;;;;;;6229272;28;20420;-81
2024/01/07 00:59:35;;;;;;;4.15;2.60;;;;;;;;;;6209875;28;20045;-80
2024/01/07 01:02:37;;;;;;;3.95;2.38;;;;;;;;;;6201451;28;20061;-80
2024/01/07 01:05:39;;;;;;;2.80;1.88;;;;;;;;;;6210976;28;20060;-80
2024/01/07 01:08:41;;;;;;;4.82;2.38;;;;;;;;;;6224360;28;20047;-79
2024/01/07 01:11:42;;;;;;;3.70;2.17;;;;;;;;;;6223711;28;20132;-80
2024/01/07 01:14:44;;;;;;;3.90;2.08;;;;;;;;;;6232241;28;20048;-80
2024/01/07 01:17:46;;;;;;;3.47;1.92;;;;;;;;;;6211028;28;20631;-80
2024/01/07 01:20:48;;;;;;;4.20;2.13;;;;;;;;;;6212066;28;20068;-81
2024/01/07 01:23:49;;;;;;;3.72;2.17;;;;;;;;;;6220675;28;20183;-80
2024/01/07 01:26:51;;;;;;;3.78;1.67;;;;;;;;;;6203108;28;20056;-79
2024/01/07 01:29:53;;;;;;;3.92;2.17;;;;;;;;;;6214112;28;20049;-79
2024/01/07 01:32:55;;;;;;;4.40;1.70;;;;;;;;;;6218018;28;20186;-80
2024/01/07 01:35:57;;;;;;;2.95;1.85;;;;;;;;;;6208872;28;20049;-79
2024/01/07 01:38:58;;;;;;;3.60;1.90;;;;;;;;;;6222194;28;20049;-79
2024/01/07 01:42:01;;;;;;;3.22;1.80;;;;;;;;;;6210114;28;20438;-79
2024/01/07 01:45:03;;;;;;;3.58;2.30;;;;;;;;;;6208841;28;20062;-78
2024/01/07 01:48:05;;;;;;;3.42;2.13;;;;;;;;;;6206642;28;20053;-78
2024/01/07 01:51:07;;;;;;;2.80;1.80;;;;;;;;;;6230724;28;20080;-80
2024/01/07 01:54:10;;;;;;;2.15;1.58;;;;;;;;;;6200117;28;20516;-80
2024/01/07 01:57:19;;;;;;;2.80;1.77;;;;;;;;;;6197000;28;20037;-79
2024/01/07 02:00:21;;;;;;;2.22;1.60;;;;;;;;;;6233008;28;20064;-78
2024/01/07 02:03:23;;;;;;;3.72;1.70;;;;;;;;;;6205588;28;20053;-78
2024/01/07 02:06:25;;;;;;;2.15;1.40;;;;;;;;;;6224092;28;20038;-78
2024/01/07 02:09:27;;;;;;;2.17;1.42;;;;;;;;;;6203109;28;20522;-81
2024/01/07 02:12:28;;;;;;;2.65;1.25;;;;;;;;;;6207831;28;20427;-80
2024/01/07 02:15:31;;;;;;;2.90;1.63;;;;;;;;;;6221671;28;20049;-79
2024/01/07 02:18:33;;;;;;;3.93;1.60;;;;;;;;;;6192843;28;20049;-79
2024/01/07 02:21:35;;;;;;;1.88;1.25;;;;;;;;;;6220486;28;20049;-79
2024/01/07 02:24:36;;;;;;;3.20;1.33;;;;;;;;;;6223211;28;20396;-80
2024/01/07 02:27:38;;;;;;;2.55;1.20;;;;;;;;;;6209802;28;20041;-80
2024/01/07 02:30:40;;;;;;;4.68;1.20;;;;;;;;;;6210456;28;20157;-80
2024/01/07 02:33:42;;;;;;;2.08;1.27;;;;;;;;;;6224452;28;20419;-80
2024/01/07 02:36:44;;;;;;;2.47;1.48;;;;;;;;;;6192180;28;20498;-81
2024/01/07 02:39:46;;;;;;;2.17;1.20;;;;;;;;;;6204055;28;20053;-80
2024/01/07 02:43:01;;;;;;;1.88;1.25;;;;;;;;;;6228105;28;20068;-79
2024/01/07 02:46:03;;;;;;;2.65;1.42;;;;;;;;;;6213929;28;20052;-80
2024/01/07 02:49:05;;;;;;;3.00;1.63;;;;;;;;;;6217284;28;20053;-79
2024/01/07 02:52:07;;;;;;;4.38;1.38;;;;;;;;;;6213738;28;20045;-80
2024/01/07 02:55:09;;;;;;;2.85;1.90;;;;;;;;;;6220801;28;20467;-80
2024/01/07 02:58:11;;;;;;;2.20;1.45;;;;;;;;;;6209094;28;20049;-79
2024/01/07 03:01:12;;;;;;;2.15;1.48;;;;;;;;;;6232445;28;20053;-79
2024/01/07 03:04:15;;;;;;;3.13;1.77;;;;;;;;;;6225764;28;20054;-80
2024/01/07 03:07:17;;;;;;;3.53;2.00;;;;;;;;;;6212458;28;20053;-79
2024/01/07 03:10:19;;;;;;;2.88;1.60;;;;;;;;;;6210518;28;20049;-80
2024/01/07 03:13:20;;;;;;;3.40;1.70;;;;;;;;;;6223937;28;20545;-79
2024/01/07 03:16:24;;;;;;;2.65;1.70;;;;;;;;;;6218692;28;20041;-79
2024/01/07 03:19:25;;;;;;;3.53;1.85;;;;;;;;;;6223592;28;20144;-81
2024/01/07 03:22:28;;;;;;;3.53;1.60;;;;;;;;;;6233697;28;20527;-80
2024/01/07 03:25:29;;;;;;;1.80;1.33;;;;;;;;;;6210646;28;20044;-80
2024/01/07 03:28:31;;;;;;;8.88;3.50;;;;;;;;;;6218179;28;20068;-80
2024/01/07 03:31:33;;;;;;;3.10;1.73;;;;;;;;;;6229030;28;20116;-80
2024/01/07 03:34:35;;;;;;;6.47;2.47;;;;;;;;;;6229113;28;20041;-80
2024/01/07 03:37:37;;;;;;;3.70;1.90;;;;;;;;;;6229619;28;20179;-80
2024/01/07 03:40:38;;;;;;;3.88;2.10;;;;;;;;;;6214435;28;20056;-80
2024/01/07 03:43:40;;;;;;;4.13;1.98;;;;;;;;;;6213842;28;20061;-80
2024/01/07 03:46:42;;;;;;;5.82;2.67;;;;;;;;;;6217947;28;20139;-80
2024/01/07 03:49:44;;;;;;;5.80;2.60;;;;;;;;;;6225309;28;20049;-80
2024/01/07 03:52:45;;;;;;;6.13;3.10;;;;;;;;;;6207134;28;20064;-81
2024/01/07 03:55:47;;;;;;;8.25;3.30;;;;;;;;;;6230079;28;20044;-79
2024/01/07 03:58:49;;;;;;;6.50;3.08;;;;;;;;;;6219109;28;20045;-78
2024/01/07 04:01:54;;;;;;;11.40;4.03;;;;;;;;;;6198945;28;20626;-78
2024/01/07 04:04:56;;;;;;;8.27;3.65;;;;;;;;;;6231074;28;20080;-78
2024/01/07 04:07:57;;;;;;;7.25;3.35;;;;;;;;;;6230872;28;20049;-81
2024/01/07 04:11:01;;;;;;;9.43;3.70;;;;;;;;;;6225189;28;20057;-80
2024/01/07 04:14:03;;;;;;;7.13;3.72;;;;;;;;;;6215241;28;20049;-79
2024/01/07 04:17:07;;;;;;;7.10;3.42;;;;;;;;;;6214043;28;20124;-80
2024/01/07 04:20:13;;;;;;;8.48;3.90;;;;;;;;;;6223857;28;20049;-79
2024/01/07 04:23:14;;;;;;;8.65;3.95;;;;;;;;;;6224406;28;20054;-81
2024/01/07 04:26:16;;;;;;;7.70;3.38;;;;;;;;;;6225573;28;20136;-81
2024/01/07 04:29:18;;;;;;;8.48;3.58;;;;;;;;;;6233287;28;20123;-78
2024/01/07 04:32:20;;;;;;;8.73;3.85;;;;;;;;;;6224515;28;20073;-79
2024/01/07 04:35:21;;;;;;;6.35;3.30;;;;;;;;;;6198625;28;20068;-79
2024/01/07 04:38:24;;;;;;;8.52;3.65;;;;;;;;;;6207258;28;20519;-78
2024/01/07 04:41:26;;;;;;;8.55;4.15;;;;;;;;;;6197452;28;20801;-79
2024/01/07 04:44:27;;;;;;;10.23;4.43;;;;;;;;;;6229551;28;20037;-79
2024/01/07 04:47:31;;;;;;;6.63;3.75;;;;;;;;;;6228209;28;20061;-80
2024/01/07 04:50:33;;;;;;;8.85;3.80;;;;;;;;;;6211288;28;20501;-80
2024/01/07 04:53:36;;;;;;;8.00;3.88;;;;;;;;;;6221822;28;20073;-79
2024/01/07 04:56:37;;;;;;;9.18;4.05;;;;;;;;;;6221584;28;20111;-80
2024/01/07 04:59:39;;;;;;;9.75;4.45;;;;;;;;;;6223725;28;20046;-79
2024/01/07 05:02:41;;;;;;;9.85;4.40;;;;;;;;;;6221976;28;20302;-82
2024/01/07 05:05:42;;;;;;;10.80;4.82;;;;;;;;;;6224915;28;20128;-79
2024/01/07 05:08:44;;;;;;;9.55;3.72;;;;;;;;;;6221119;28;20051;-79
2024/01/07 05:11:46;;;;;;;10.73;3.70;;;;;;;;;;6227345;28;20041;-80
2024/01/07 05:14:48;;;;;;;13.63;4.68;;;;;;;;;;6209017;28;20449;-81
2024/01/07 05:17:50;;;;;;;8.70;4.00;;;;;;;;;;6209642;28;20186;-80
2024/01/07 05:20:51;;;;;;;9.32;4.13;;;;;;;;;;6223885;28;20085;-81
2024/01/07 05:23:53;;;;;;;13.45;4.47;;;;;;;;;;6223548;28;20041;-80
2024/01/07 05:26:55;;;;;;;10.25;4.40;;;;;;;;;;6224618;28;20046;-81
2024/01/07 05:29:57;;;;;;;10.73;4.95;;;;;;;;;;6230408;28;20114;-80
2024/01/07 05:32:58;;;;;;;10.75;4.25;;;;;;;;;;6232468;28;20041;-81
2024/01/07 05:36:00;;;;;;;8.77;4.85;;;;;;;;;;6207017;28;20045;-82
2024/01/07 05:39:03;;;;;;;10.68;4.45;;;;;;;;;;6221026;28;20057;-80
2024/01/07 05:42:05;;;;;;;9.87;4.57;;;;;;;;;;6212916;28;20041;-80
2024/01/07 05:45:07;;;;;;;11.73;4.40;;;;;;;;;;6210563;28;20069;-80
2024/01/07 05:48:08;;;;;;;8.93;4.50;;;;;;;;;;6184816;28;20163;-79
2024/01/07 05:51:11;;;;;;;11.30;5.00;;;;;;;;;;6222894;28;20070;-80
2024/01/07 05:54:13;;;;;;;11.18;4.82;;;;;;;;;;6205929;28;20037;-79
2024/01/07 05:57:14;;;;;;;9.68;4.78;;;;;;;;;;6223691;28;20389;-79
2024/01/07 06:00:16;;;;;;;12.70;4.80;;;;;;;;;;6209956;28;20053;-80
2024/01/07 06:03:18;;;;;;;13.88;4.88;;;;;;;;;;6208157;28;20037;-81
2024/01/07 06:06:20;;;;;;;11.63;5.60;;;;;;;;;;6222174;28;20766;-80
2024/01/07 06:09:22;;;;;;;14.27;5.32;;;;;;;;;;6223347;28;20050;-79
2024/01/07 06:12:24;;;;;;;10.65;4.72;;;;;;;;;;6243502;28;20050;-79
2024/01/07 06:15:25;;;;;;;11.75;5.32;;;;;;;;;;6216648;28;20045;-80
2024/01/07 06:18:27;;;;;;;12.32;5.65;;;;;;;;;;6217507;28;20146;-80
2024/01/07 06:21:29;;;;;;;13.45;6.50;;;;;;;;;;6217489;28;20080;-81
2024/01/07 06:24:31;;;;;;;10.05;4.95;;;;;;;;;;6222866;28;20041;-79
2024/01/07 06:27:33;;;;;;;12.18;5.07;;;;;;;;;;6208587;28;20084;-79
2024/01/07 06:30:34;;;;;;;12.65;6.80;;;;;;;;;;6208173;28;20144;-79
2024/01/07 06:33:36;;;;;;;13.73;6.20;;;;;;;;;;6218819;28;20037;-81
2024/01/07 06:36:38;;;;;;;14.57;6.57;;;;;;;;;;6209490;28;20045;-80
2024/01/07 06:39:40;;;;;;;14.77;5.75;;;;;;;;;;6227418;28;20049;-80
2024/01/07 06:42:43;;;;;;;14.57;6.22;;;;;;;;;;6218105;28;20045;-79
2024/01/07 06:45:45;;;;;;;13.95;5.97;;;;;;;;;;6210162;28;20523;-80
2024/01/07 06:48:47;;;;;;;15.20;6.22;;;;;;;;;;6203778;28;20080;-81
2024/01/07 06:51:52;;;;;;;12.45;6.25;;;;;;;;;;6226809;28;20053;-80
2024/01/07 06:54:54;;;;;;;14.63;6.22;;;;;;;;;;6224066;28;20053;-80
2024/01/07 06:57:55;;;;;;;15.40;6.35;;;;;;;;;;6232909;28;20053;-81
2024/01/07 07:00:57;;;;;;;15.50;6.47;;;;;;;;;;6210614;28;20127;-80
2024/01/07 07:04:00;;;;;;;16.83;7.90;;;;;;;;;;6219791;28;20049;-81
2024/01/07 07:07:02;;;;;;;13.77;6.30;;;;;;;;;;6207261;28;20049;-80
2024/01/07 07:10:04;;;;;;;14.38;6.07;;;;;;;;;;6228429;28;20054;-80
2024/01/07 07:13:06;;;;;;;17.15;6.97;;;;;;;;;;6231493;28;20042;-80
2024/01/07 07:16:07;;;;;;;18.33;7.95;;;;;;;;;;6227198;28;20037;-82
2024/01/07 07:19:14;;;;;;;15.65;6.75;;;;;;;;;;6208599;28;20038;-80
2024/01/07 07:22:16;;;;;;;15.55;7.07;;;;;;;;;;6224876;28;20501;-80
2024/01/07 07:25:18;;;;;;;32.28;11.75;;;;;;;;;;6213932;28;20068;-81
2024/01/07 07:28:20;;;;;;;28.42;12.65;;;;;;;;;;6211766;28;20046;-81
2024/01/07 07:31:22;;;;;;;22.65;9.63;;;;;;;;;;6224719;28;20049;-81
2024/01/07 07:34:23;;;;;;;19.52;8.82;;;;;;;;;;6221606;28;20189;-81
2024/01/07 07:37:25;;;;;;;20.90;9.63;;;;;;;;;;6222962;28;20087;-81
2024/01/07 07:40:27;;;;;;;22.75;9.85;;;;;;;;;;6213257;28;20046;-82
2024/01/07 07:43:29;;;;;;;18.73;8.27;;;;;;;;;;6213493;28;20041;-81
2024/01/07 07:46:31;;;;;;;18.25;7.65;;;;;;;;;;6201695;28;20052;-80
2024/01/07 07:49:35;;;;;;;18.00;7.57;;;;;;;;;;6223969;28;20618;-80
2024/01/07 07:52:37;;;;;;;16.83;7.72;;;;;;;;;;6228961;28;20449;-80
2024/01/07 07:55:39;;;;;;;16.00;7.28;;;;;;;;;;6199689;28;20648;-80
2024/01/07 07:58:40;;;;;;;15.52;8.32;;;;;;;;;;6198444;28;20092;-80
2024/01/07 08:01:42;;;;;;;18.70;7.63;;;;;;;;;;6229714;28;20586;-81
2024/01/07 08:04:44;;;;;;;18.00;8.27;;;;;;;;;;6189688;28;20393;-81
2024/01/07 08:07:46;;;;;;;16.77;7.18;;;;;;;;;;6227532;28;20063;-81
2024/01/07 08:10:47;;;;;;;15.50;7.18;;;;;;;;;;6212972;28;20503;-81
2024/01/07 08:13:49;;;;;;;17.95;7.50;;;;;;;;;;6198158;28;20158;-81
2024/01/07 08:16:51;;;;;;;15.35;7.40;;;;;;;;;;6219052;28;20048;-81
2024/01/07 08:19:53;;;;;;;18.73;7.75;;;;;;;;;;6241536;28;20046;-81
2024/01/07 08:22:55;;;;;;;20.90;8.85;;;;;;;;;;6234194;28;20058;-80
2024/01/07 08:25:57;;;;;;;30.95;14.68;;;;;;;;;;6210203;28;20053;-81
2024/01/07 08:28:59;;;;;;;16.48;7.88;;;;;;;;;;6201702;28;20049;-80
2024/01/07 08:32:01;;;;;;;19.33;8.60;;;;;;;;;;6224530;28;20049;-80
2024/01/07 08:35:03;;;;;;;21.52;11.65;;;;;;;;;;6224827;28;20038;-80
2024/01/07 08:38:05;;;;;;;15.45;8.13;;;;;;;;;;6224556;28;20113;-83
2024/01/07 08:41:07;;;;;;;15.35;7.18;;;;;;;;;;6216083;28;20073;-81
2024/01/07 08:44:09;;;;;;;18.53;7.40;;;;;;;;;;6212187;28;20115;-81
2024/01/07 08:47:10;;;;;;;16.40;7.93;;;;;;;;;;6221050;28;20042;-81
2024/01/07 08:50:13;;;;;;;18.83;7.75;;;;;;;;;;6218719;28;20494;-81
2024/01/07 08:53:15;;;;;;;18.77;8.27;;;;;;;;;;6210104;28;20041;-81
2024/01/07 08:56:16;;;;;;;12.68;6.07;;;;;;;;;;6203901;28;20049;-81
2024/01/07 08:59:18;;;;;;;14.88;6.95;;;;;;;;;;6226746;28;20122;-81
2024/01/07 09:02:20;;;;;;;12.98;5.95;;;;;;;;;;6217952;28;20131;-82
2024/01/07 09:05:21;;;;;;;14.20;6.28;;;;;;;;;;6222269;28;20050;-80
2024/01/07 09:08:24;;;;;;;10.75;5.43;;;;;;;;;;6205659;28;20046;-81
2024/01/07 09:11:25;;;;;;;11.77;5.90;;;;;;;;;;6209414;28;20046;-80
2024/01/07 09:14:27;;;;;;;12.73;6.55;;;;;;;;;;6210023;28;20519;-80
2024/01/07 09:17:29;;;;;;;19.38;8.85;;;;;;;;;;6208636;28;20056;-82
2024/01/07 09:20:31;;;;;;;15.32;7.97;;;;;;;;;;6220092;28;20084;-80
2024/01/07 09:23:39;;;;;;;12.48;6.57;;;;;;;;;;6190244;28;20085;-81
2024/01/07 09:26:41;;;;;;;11.65;6.05;;;;;;;;;;6202436;28;20151;-81
2024/01/07 09:29:42;;;;;;;14.73;8.45;;;;;;;;;;6225262;28;21480;-81
2024/01/07 09:32:44;;;;;;;16.40;7.65;;;;;;;;;;6196708;28;20808;-81
2024/01/07 09:35:46;;;;;;;12.30;7.03;;;;;;;;;;6214271;28;20109;-81
2024/01/07 09:38:47;;;;;;;16.40;6.93;;;;;;;;;;6202848;28;20069;-80
2024/01/07 09:41:50;;;;;;;12.30;5.82;;;;;;;;;;6225622;28;20059;-82
2024/01/07 09:44:52;;;;;;;12.10;6.50;;;;;;;;;;6201761;28;20041;-81
2024/01/07 09:47:54;;;;;;;12.52;6.65;;;;;;;;;;6205079;28;20228;-81
2024/01/07 09:50:58;;;;;;;11.93;6.47;;;;;;;;;;6221153;28;20148;-81
2024/01/07 09:54:04;;;;;;;11.93;6.20;;;;;;;;;;6192237;28;20046;-80
2024/01/07 09:57:07;;;;;;;15.60;7.57;;;;;;;;;;6213655;28;20045;-80
2024/01/07 10:00:09;;;;;;;11.93;6.90;;;;;;;;;;6204014;28;20080;-80
2024/01/07 10:03:14;;;;;;;15.73;7.30;;;;;;;;;;6214726;28;20508;-81
2024/01/07 10:06:20;;;;;;;21.00;8.75;;;;;;;;;;6187633;28;20421;-80
2024/01/07 10:09:23;;;;;;;12.60;6.45;;;;;;;;;;6204628;28;20042;-80
2024/01/07 10:12:26;;;;;;;18.23;7.35;;;;;;;;;;6228272;28;20106;-79
2024/01/07 10:15:28;;;;;;;11.32;6.07;;;;;;;;;;6205663;28;20061;-80
2024/01/07 10:18:31;;;;;;;12.02;7.07;;;;;;;;;;6222884;28;20115;-79
2024/01/07 10:21:33;;;;;;;;;;;;;;;;;;6229571;28;20037;-80
2024/01/07 10:24:39;;;;;;;13.90;6.72;;;;;;;;;;6227392;28;19925;-80
2024/01/07 10:27:41;;;;;;;13.93;7.28;;;;;;;;;;6233572;28;20167;-81
2024/01/07 10:30:49;;;;;;;13.55;6.57;;;;;;;;;;6213911;28;20053;-83
2024/01/07 10:33:52;;;;;;;13.50;7.57;;;;;;;;;;6226325;28;20045;-80
2024/01/07 10:36:56;;;;;;;11.23;5.95;;;;;;;;;;6222881;28;20053;-79
2024/01/07 10:40:03;;;;;;;21.20;7.97;;;;;;;;;;6234219;28;20064;-81
2024/01/07 10:43:05;;;;;;;9.73;5.90;;;;;;;;;;6235300;28;20042;-81
2024/01/07 10:46:10;;;;;;;13.10;7.55;;;;;;;;;;6229228;28;20050;-80
2024/01/07 10:49:20;;;;;;;12.07;6.32;;;;;;;;;;6223685;28;20521;-80
2024/01/07 10:52:23;;;;;;;16.73;7.22;;;;;;;;;;6208333;28;20041;-81
2024/01/07 10:55:26;;;;;;;12.10;6.22;;;;;;;;;;6234050;28;20065;-80
2024/01/07 10:58:28;;;;;;;14.93;7.10;;;;;;;;;;6217638;28;20053;-80
2024/01/07 11:01:30;;;;;;;15.27;7.63;;;;;;;;;;6205260;28;20057;-81
2024/01/07 11:04:48;;;;;;;13.67;6.43;;;;;;;;;;6190201;28;20054;-80
2024/01/07 11:08:03;;;;;;;12.98;6.03;;;;;;;;;;6217637;28;20048;-82
2024/01/07 11:11:14;;;;;;;12.32;5.68;;;;;;;;;;6225085;28;20482;-81
2024/01/07 11:14:39;;;;;;;13.45;6.35;;;;;;;;;;6215058;28;20049;-80
2024/01/07 11:17:43;;;;;;;15.65;8.10;;;;;;;;;;6230416;28;20188;-81
2024/01/07 11:20:45;;;;;;;;;;;;;;;;;;6224665;28;20060;-81
2024/01/07 11:23:47;;;;;;;13.50;7.40;;;;;;;;;;6206695;28;19994;-82
2024/01/07 11:26:50;;;;;;;29.10;13.23;;;;;;;;;;6216558;28;20056;-81
2024/01/07 11:29:56;;;;;;;11.73;5.28;;;;;;;;;;6226186;28;20950;-81
2024/01/07 11:33:01;;;;;;;19.38;9.35;;;;;;;;;;6214288;28;20127;-82
2024/01/07 11:36:05;;;;;;;13.88;6.70;;;;;;;;;;6221084;28;20533;-82
2024/01/07 11:39:08;;;;;;;15.07;6.72;;;;;;;;;;6214143;28;20045;-82
2024/01/07 11:42:13;;;;;;;10.70;5.50;;;;;;;;;;6214915;28;20172;-82
2024/01/07 11:45:16;;;;;;;27.92;10.05;;;;;;;;;;6215031;28;20046;-82
2024/01/07 11:48:19;;;;;;;13.43;6.57;;;;;;;;;;6211524;28;20053;-81
2024/01/07 11:51:21;;;;;;;24.95;9.65;;;;;;;;;;6220259;28;20049;-81
2024/01/07 11:54:23;;;;;;;13.75;6.70;;;;;;;;;;6227018;28;20128;-80
2024/01/07 11:57:25;;;;;;;14.43;6.32;;;;;;;;;;6215915;28;20056;-80
2024/01/07 12:00:26;;;;;;;18.35;7.40;;;;;;;;;;6219956;28;20064;-81
2024/01/07 12:03:28;;;;;;;17.27;8.00;;;;;;;;;;6223414;28;20050;-81
2024/01/07 12:06:31;;;;;;;14.25;6.38;;;;;;;;;;6226669;28;20046;-81
2024/01/07 12:09:32;;;;;;;19.38;7.88;;;;;;;;;;6210184;28;20045;-81
2024/01/07 12:12:34;;;;;;;15.20;6.78;;;;;;;;;;6226975;28;20049;-81
2024/01/07 12:15:37;;;;;;;12.80;5.85;;;;;;;;;;6205373;28;20125;-80
2024/01/07 12:18:39;;;;;;;27.10;8.83;;;;;;;;;;6226269;28;20179;-81
2024/01/07 12:21:41;;;;;;;16.98;5.97;;;;;;;;;;6215201;28;20092;-80
2024/01/07 12:24:44;;;;;;;13.45;5.60;;;;;;;;;;6217501;28;20420;-81
2024/01/07 12:27:46;;;;;;;14.88;6.22;;;;;;;;;;6189664;28;20187;-80
2024/01/07 12:30:50;;;;;;;12.73;5.90;;;;;;;;;;6219243;28;20392;-80
2024/01/07 12:33:55;;;;;;;15.00;5.68;;;;;;;;;;6202701;28;20053;-81
2024/01/07 12:36:59;;;;;;;77.60;18.33;;;;;;;;;;6220125;28;20210;-80
2024/01/07 12:40:01;;;;;;;15.95;6.55;;;;;;;;;;6217880;28;20045;-81
2024/01/07 12:43:04;;;;;;;21.80;8.70;;;;;;;;;;6202661;28;20202;-80
2024/01/07 12:46:06;;;;;;;10.30;4.80;;;;;;;;;;6221832;28;20041;-80
2024/01/07 12:49:09;;;;;;;19.67;6.32;;;;;;;;;;6212805;28;20520;-81
2024/01/07 12:52:11;;;;;;;8.15;4.22;;;;;;;;;;6231768;28;20056;-80
2024/01/07 12:55:13;;;;;;;6.90;4.15;;;;;;;;;;6227956;28;20038;-81
2024/01/07 12:58:16;;;;;;;18.35;5.97;;;;;;;;;;6208606;28;20038;-81
2024/01/07 13:01:18;;;;;;;8.32;3.65;;;;;;;;;;6199681;28;20045;-81
2024/01/07 13:04:20;;;;;;;5.78;2.80;;;;;;;;;;6216036;28;20041;-81
2024/01/07 13:07:23;;;;;;;8.25;4.10;;;;;;;;;;6193314;28;20053;-80
2024/01/07 13:10:25;;;;;;;5.82;2.67;;;;;;;;;;6216303;28;20392;-80
2024/01/07 13:13:27;;;;;;;8.23;3.88;;;;;;;;;;6208786;28;20053;-81
2024/01/07 13:16:29;;;;;;;6.50;3.47;;;;;;;;;;6218394;28;20056;-80
2024/01/07 13:19:31;;;;;;;13.68;5.70;;;;;;;;;;6217393;28;20535;-80
2024/01/07 13:22:34;;;;;;;4.35;2.25;;;;;;;;;;6216373;28;20052;-81
2024/01/07 13:25:36;;;;;;;6.22;3.00;;;;;;;;;;6221399;28;20049;-80
2024/01/07 13:28:38;;;;;;;4.65;2.70;;;;;;;;;;6223503;28;20052;-78
2024/01/07 13:31:39;;;;;;;13.93;4.85;;;;;;;;;;6217105;28;20508;-79
2024/01/07 13:34:42;;;;;;;7.50;3.15;;;;;;;;;;6196488;28;20049;-79
2024/01/07 13:37:44;;;;;;;8.07;3.10;;;;;;;;;;6188953;28;20832;-80
2024/01/07 13:40:46;;;;;;;8.00;3.97;;;;;;;;;;6225118;28;20060;-79
2024/01/07 13:43:48;;;;;;;6.30;3.10;;;;;;;;;;6221337;28;20053;-83
2024/01/07 13:46:52;;;;;;;8.05;3.78;;;;;;;;;;6213498;28;20521;-82
2024/01/07 13:49:53;;;;;;;4.20;2.67;;;;;;;;;;6187498;28;20081;-81
2024/01/07 13:52:55;;;;;;;8.10;3.23;;;;;;;;;;6208170;28;20045;-81
2024/01/07 13:55:58;;;;;;;7.75;3.30;;;;;;;;;;6227316;28;20057;-81
2024/01/07 13:58:59;;;;;;;5.30;2.55;;;;;;;;;;6210604;28;20080;-81
2024/01/07 14:02:02;;;;;;;7.60;3.47;;;;;;;;;;6218106;28;20108;-81
2024/01/07 14:05:06;;;;;;;5.97;3.53;;;;;;;;;;6221732;28;20491;-78
2024/01/07 14:08:08;;;;;;;10.55;4.57;;;;;;;;;;6206401;28;20159;-80
2024/01/07 14:11:10;;;;;;;11.88;4.75;;;;;;;;;;6193903;28;20045;-79
2024/01/07 14:14:12;;;;;;;12.57;6.40;;;;;;;;;;6198969;28;20527;-79
2024/01/07 14:17:13;;;;;;;6.50;3.30;;;;;;;;;;6193165;28;20550;-78
2024/01/07 14:20:15;;;;;;;6.93;3.08;;;;;;;;;;6202005;28;20125;-80
2024/01/07 14:23:18;;;;;;;9.10;3.65;;;;;;;;;;6209176;28;20567;-79
2024/01/07 14:26:22;;;;;;;11.02;4.50;;;;;;;;;;6218865;28;20131;-79
2024/01/07 14:29:24;;;;;;;4.40;2.50;;;;;;;;;;6205134;28;20042;-81
2024/01/07 14:32:26;;;;;;;4.95;3.00;;;;;;;;;;6214854;28;20431;-79
2024/01/07 14:35:30;;;;;;;3.65;2.17;;;;;;;;;;6203109;28;20050;-80
2024/01/07 14:38:32;;;;;;;;;;;;;;;;;;6216368;28;20073;-80
2024/01/07 14:41:34;;;;;;;5.30;2.95;;;;;;;;;;6192509;28;19929;-80
2024/01/07 14:44:36;;;;;;;4.40;2.60;;;;;;;;;;6224454;28;20479;-79
2024/01/07 14:47:51;;;;;;;6.55;3.03;;;;;;;;;;6229220;28;20064;-80
2024/01/07 14:50:53;;;;;;;4.22;2.40;;;;;;;;;;6227362;28;20053;-79
2024/01/07 14:53:55;;;;;;;3.88;2.50;;;;;;;;;;6214930;28;20053;-81
2024/01/07 14:56:57;;;;;;;5.13;2.60;;;;;;;;;;6220005;28;20600;-79
2024/01/07 14:59:59;;;;;;;5.93;2.58;;;;;;;;;;6228307;28;20166;-80
2024/01/07 15:03:00;;;;;;;3.60;2.30;;;;;;;;;;6218720;28;20060;-76
2024/01/07 15:06:03;;;;;;;9.23;4.78;;;;;;;;;;6234456;28;21934;-77
2024/01/07 15:09:05;;;;;;;8.35;3.50;;;;;;;;;;6213153;28;20053;-79
2024/01/07 15:12:07;;;;;;;5.13;2.88;;;;;;;;;;6193946;28;20042;-78
2024/01/07 15:15:09;;;;;;;5.13;2.75;;;;;;;;;;6224466;28;20828;-78
2024/01/07 15:18:11;;;;;;;6.07;3.05;;;;;;;;;;6226253;28;20097;-78
2024/01/07 15:21:14;;;;;;;;;;;;;;;;;;6189450;28;20052;-76
2024/01/07 15:24:15;;;;;;;2.40;1.50;;;;;;;;;;6229769;28;20286;-80
2024/01/07 15:27:17;;;;;;;3.80;2.25;;;;;;;;;;6234256;28;20046;-79
2024/01/07 15:30:19;;;;;;;5.43;3.00;;;;;;;;;;6224724;28;20144;-80
2024/01/07 15:33:23;;;;;;;3.72;2.65;;;;;;;;;;6224337;28;20048;-78
2024/01/07 15:36:25;;;;;;;4.05;2.08;;;;;;;;;;6214326;28;20065;-78
2024/01/07 15:39:27;;;;;;;7.05;4.50;;;;;;;;;;6210129;28;20523;-77
2024/01/07 15:42:29;;;;;;;3.42;1.58;;;;;;;;;;6225169;28;20095;-79
2024/01/07 15:45:30;;;;;;;2.72;1.63;;;;;;;;;;6234266;28;20626;-79
2024/01/07 15:48:32;;;;;;;2.15;1.50;;;;;;;;;;6203554;28;20106;-80
2024/01/07 15:51:34;;;;;;;10.13;3.88;;;;;;;;;;6225915;28;20057;-79
2024/01/07 15:54:36;;;;;;;3.63;2.28;;;;;;;;;;6226480;28;20053;-80
2024/01/07 15:57:38;;;;;;;3.78;1.63;;;;;;;;;;6215493;28;20586;-80
2024/01/07 16:00:40;;;;;;;3.92;1.98;;;;;;;;;;6228165;28;20148;-80
2024/01/07 16:03:42;;;;;;;3.80;2.42;;;;;;;;;;6210988;28;20100;-80
2024/01/07 16:06:44;;;;;;;2.63;1.83;;;;;;;;;;6207046;28;20061;-80
2024/01/07 16:09:46;;;;;;;1.50;1.30;;;;;;;;;;6217388;28;20053;-80
2024/01/07 16:12:48;;;;;;;1.90;1.35;;;;;;;;;;6186297;28;20041;-80
2024/01/07 16:15:49;;;;;;;2.15;1.40;;;;;;;;;;6219632;28;20049;-80
2024/01/07 16:18:51;;;;;;;2.17;1.63;;;;;;;;;;6213158;28;20463;-79
2024/01/07 16:21:53;;;;;;;3.70;1.58;;;;;;;;;;6214746;28;20052;-80
2024/01/07 16:24:55;;;;;;;2.42;1.52;;;;;;;;;;6216023;28;20060;-80
2024/01/07 16:27:59;;;;;;;3.55;1.67;;;;;;;;;;6212914;28;20053;-81
2024/01/07 16:31:00;;;;;;;;;;;;;;;;;;6188080;28;20464;-80
2024/01/07 16:34:02;;;;;;;2.60;1.80;;;;;;;;;;6213030;28;20924;-78
2024/01/07 16:37:04;;;;;;;1.92;1.30;;;;;;;;;;6220512;28;20095;-80
2024/01/07 16:40:07;;;;;;;3.00;1.77;;;;;;;;;;6208351;28;20045;-80
2024/01/07 16:43:08;;;;;;;2.97;1.75;;;;;;;;;;6220333;28;20122;-78
2024/01/07 16:46:13;;;;;;;2.88;1.48;;;;;;;;;;6210458;28;20069;-79
2024/01/07 16:49:18;;;;;;;3.63;1.90;;;;;;;;;;6222831;28;20041;-79
2024/01/07 16:52:23;;;;;;;11.85;4.53;;;;;;;;;;6223183;28;20140;-79
2024/01/07 16:55:24;;;;;;;5.95;2.33;;;;;;;;;;6186211;28;20527;-79
2024/01/07 16:58:26;;;;;;;4.38;2.15;;;;;;;;;;6222298;28;20072;-80
2024/01/07 17:01:28;;;;;;;6.10;2.20;;;;;;;;;;6217925;28;20050;-77
2024/01/07 17:04:29;;;;;;;3.88;1.98;;;;;;;;;;6187900;28;20061;-78
2024/01/07 17:07:32;;;;;;;2.90;1.80;;;;;;;;;;6216447;28;20049;-80
2024/01/07 17:10:34;;;;;;;;;;;;;;;;;;6191112;28;20049;-79
2024/01/07 17:13:37;;;;;;;2.80;1.42;;;;;;;;;;6216890;28;20067;-79
2024/01/07 17:16:39;;;;;;;2.17;1.60;;;;;;;;;;6217707;28;20084;-78
2024/01/07 17:19:42;;;;;;;6.57;1.85;;;;;;;;;;6214323;28;20050;-79
2024/01/07 17:22:44;;;;;;;3.03;1.48;;;;;;;;;;6222433;28;20053;-77
2024/01/07 17:25:46;;;;;;;2.08;1.60;;;;;;;;;;6217541;28;20045;-77
2024/01/07 17:28:47;;;;;;;8.32;3.45;;;;;;;;;;6218716;28;20419;-78
2024/01/07 17:31:49;;;;;;;6.45;2.30;;;;;;;;;;6219626;28;20049;-78
2024/01/07 17:34:52;;;;;;;3.42;1.95;;;;;;;;;;6218934;28;20099;-77
2024/01/07 17:37:54;;;;;;;2.10;1.70;;;;;;;;;;6203919;28;20049;-80
2024/01/07 17:40:56;;;;;;;2.50;2.00;;;;;;;;;;6198172;28;20064;-82
2024/01/07 17:43:57;;;;;;;1.75;1.48;;;;;;;;;;6199273;28;20046;-79
2024/01/07 17:46:59;;;;;;;1.92;1.30;;;;;;;;;;6215610;28;20088;-79
2024/01/07 17:50:01;;;;;;;4.20;1.52;;;;;;;;;;6184404;28;20167;-78
2024/01/07 17:53:07;;;;;;;2.30;1.52;;;;;;;;;;6222035;28;20053;-81
2024/01/07 17:56:17;;;;;;;3.33;1.70;;;;;;;;;;6209861;28;20056;-78
2024/01/07 17:59:19;;;;;;;2.17;1.27;;;;;;;;;;6215618;28;20704;-79
2024/01/07 18:02:22;;;;;;;2.47;1.20;;;;;;;;;;6207862;28;20047;-79
2024/01/07 18:05:23;;;;;;;2.58;1.98;;;;;;;;;;6209849;28;20037;-78
2024/01/07 18:08:25;;;;;;;2.38;1.65;;;;;;;;;;6228000;28;20571;-78